sensor_id;sensor_type;location;lat;lon;timestamp;temperature;humidity
11772;DHT22;12556;55.748;13.194;2024-03-02T00:01:35;6.80;99.90
11772;DHT22;12556;55.748;13.194;2024-03-02T00:04:05;6.80;99.90
11772;DHT22;12556;55.748;13.194;2024-03-02T00:06:33;6.80;99.90
11772;DHT22;12556;55.748;13.194;2024-03-02T00:09:00;6.80;99.90
11772;DHT22;12556;55.748;13.194;2024-03-02T00:11:26;6.80;99.90
11772;DHT22;12556;55.748;13.194;2024-03-02T00:13:54;6.80;99.90
11772;DHT22;12556;55.748;13.194;2024-03-02T00:16:21;6.80;99.90
11772;DHT22;12556;55.748;13.194;2024-03-02T00:18:49;6.90;99.90
11772;DHT22;12556;55.748;13.194;2024-03-02T00:21:18;6.90;99.90
11772;DHT22;12556;55.748;13.194;2024-03-02T00:23:48;6.90;99.90
11772;DHT22;12556;55.748;13.194;2024-03-02T00:26:16;6.90;99.90
11772;DHT22;12556;55.748;13.194;2024-03-02T00:28:43;6.90;99.90
11772;DHT22;12556;55.748;13.194;2024-03-02T00:31:12;6.90;99.90
11772;DHT22;12556;55.748;13.194;2024-03-02T00:33:42;6.90;99.90
11772;DHT22;12556;55.748;13.194;2024-03-02T00:36:10;6.90;99.90
11772;DHT22;12556;55.748;13.194;2024-03-02T00:38:44;6.90;99.90
11772;DHT22;12556;55.748;13.194;2024-03-02T00:41:17;7.00;99.90
11772;DHT22;12556;55.748;13.194;2024-03-02T00:43:57;7.00;99.90
11772;DHT22;12556;55.748;13.194;2024-03-02T00:46:24;7.00;99.90
11772;DHT22;12556;55.748;13.194;2024-03-02T00:48:53;6.90;99.90
11772;DHT22;12556;55.748;13.194;2024-03-02T00:51:21;6.90;99.90
11772;DHT22;12556;55.748;13.194;2024-03-02T00:53:50;6.90;99.90
11772;DHT22;12556;55.748;13.194;2024-03-02T00:56:18;6.90;99.90
11772;DHT22;12556;55.748;13.194;2024-03-02T00:58:45;6.90;99.90
11772;DHT22;12556;55.748;13.194;2024-03-02T01:01:12;7.00;99.90
11772;DHT22;12556;55.748;13.194;2024-03-02T01:03:40;6.90;99.90
11772;DHT22;12556;55.748;13.194;2024-03-02T01:06:08;6.90;99.90
11772;DHT22;12556;55.748;13.194;2024-03-02T01:08:35;6.90;99.90
11772;DHT22;12556;55.748;13.194;2024-03-02T01:11:04;6.90;99.90
11772;DHT22;12556;55.748;13.194;2024-03-02T01:13:31;6.90;99.90
11772;DHT22;12556;55.748;13.194;2024-03-02T01:15:59;6.90;99.90
11772;DHT22;12556;55.748;13.194;2024-03-02T01:18:26;6.90;99.90
11772;DHT22;12556;55.748;13.194;2024-03-02T01:20:53;6.90;99.90
11772;DHT22;12556;55.748;13.194;2024-03-02T01:23:21;6.90;99.90
11772;DHT22;12556;55.748;13.194;2024-03-02T01:25:49;7.00;99.90
11772;DHT22;12556;55.748;13.194;2024-03-02T01:28:17;6.90;99.90
11772;DHT22;12556;55.748;13.194;2024-03-02T01:30:46;6.80;99.90
11772;DHT22;12556;55.748;13.194;2024-03-02T01:33:13;6.80;99.90
11772;DHT22;12556;55.748;13.194;2024-03-02T01:35:40;6.80;99.90
11772;DHT22;12556;55.748;13.194;2024-03-02T01:38:07;6.80;99.90
11772;DHT22;12556;55.748;13.194;2024-03-02T01:40:34;6.70;99.90
11772;DHT22;12556;55.748;13.194;2024-03-02T01:43:01;6.70;99.90
11772;DHT22;12556;55.748;13.194;2024-03-02T01:45:29;6.70;99.90
11772;DHT22;12556;55.748;13.194;2024-03-02T01:47:56;6.70;99.90
11772;DHT22;12556;55.748;13.194;2024-03-02T01:50:27;6.70;99.90
11772;DHT22;12556;55.748;13.194;2024-03-02T01:52:55;6.60;99.90
11772;DHT22;12556;55.748;13.194;2024-03-02T01:55:22;6.60;99.90
11772;DHT22;12556;55.748;13.194;2024-03-02T01:57:49;6.50;99.90
11772;DHT22;12556;55.748;13.194;2024-03-02T02:00:18;6.50;99.90
11772;DHT22;12556;55.748;13.194;2024-03-02T02:02:47;6.50;99.90
11772;DHT22;12556;55.748;13.194;2024-03-02T02:05:14;6.50;99.90
11772;DHT22;12556;55.748;13.194;2024-03-02T02:07:41;6.40;99.90
11772;DHT22;12556;55.748;13.194;2024-03-02T02:10:09;6.40;99.90
11772;DHT22;12556;55.748;13.194;2024-03-02T02:12:37;6.40;99.90
11772;DHT22;12556;55.748;13.194;2024-03-02T02:15:04;6.30;99.90
11772;DHT22;12556;55.748;13.194;2024-03-02T02:17:49;6.30;99.90
11772;DHT22;12556;55.748;13.194;2024-03-02T02:20:16;6.30;99.90
11772;DHT22;12556;55.748;13.194;2024-03-02T02:22:57;6.30;99.90
11772;DHT22;12556;55.748;13.194;2024-03-02T02:25:24;6.30;99.90
11772;DHT22;12556;55.748;13.194;2024-03-02T02:27:51;6.20;99.90
11772;DHT22;12556;55.748;13.194;2024-03-02T02:30:19;6.30;99.90
11772;DHT22;12556;55.748;13.194;2024-03-02T02:32:46;6.20;99.90
11772;DHT22;12556;55.748;13.194;2024-03-02T02:35:13;6.30;99.90
11772;DHT22;12556;55.748;13.194;2024-03-02T02:37:41;6.30;99.90
11772;DHT22;12556;55.748;13.194;2024-03-02T02:40:11;6.40;99.90
11772;DHT22;12556;55.748;13.194;2024-03-02T02:42:38;6.30;99.90
11772;DHT22;12556;55.748;13.194;2024-03-02T02:45:06;6.30;99.90
11772;DHT22;12556;55.748;13.194;2024-03-02T02:47:33;6.30;99.90
11772;DHT22;12556;55.748;13.194;2024-03-02T02:50:01;6.30;99.90
11772;DHT22;12556;55.748;13.194;2024-03-02T02:52:31;6.30;99.90
11772;DHT22;12556;55.748;13.194;2024-03-02T02:54:59;6.30;99.90
11772;DHT22;12556;55.748;13.194;2024-03-02T02:57:27;6.40;99.90
11772;DHT22;12556;55.748;13.194;2024-03-02T02:59:56;6.40;99.90
11772;DHT22;12556;55.748;13.194;2024-03-02T03:02:23;6.40;99.90
11772;DHT22;12556;55.748;13.194;2024-03-02T03:04:50;6.50;99.90
11772;DHT22;12556;55.748;13.194;2024-03-02T03:07:17;6.50;99.90
11772;DHT22;12556;55.748;13.194;2024-03-02T03:09:44;6.50;99.90
11772;DHT22;12556;55.748;13.194;2024-03-02T03:12:10;6.60;99.90
11772;DHT22;12556;55.748;13.194;2024-03-02T03:14:40;6.50;99.90
11772;DHT22;12556;55.748;13.194;2024-03-02T03:17:07;6.60;99.90
11772;DHT22;12556;55.748;13.194;2024-03-02T03:19:34;6.60;99.90
11772;DHT22;12556;55.748;13.194;2024-03-02T03:22:01;6.60;99.90
11772;DHT22;12556;55.748;13.194;2024-03-02T03:24:29;6.70;99.90
11772;DHT22;12556;55.748;13.194;2024-03-02T03:26:55;6.70;99.90
11772;DHT22;12556;55.748;13.194;2024-03-02T03:29:22;6.70;99.90
11772;DHT22;12556;55.748;13.194;2024-03-02T03:31:51;6.70;99.90
11772;DHT22;12556;55.748;13.194;2024-03-02T03:34:18;6.80;99.90
11772;DHT22;12556;55.748;13.194;2024-03-02T03:36:44;6.80;99.90
11772;DHT22;12556;55.748;13.194;2024-03-02T03:39:11;6.90;99.90
11772;DHT22;12556;55.748;13.194;2024-03-02T03:41:40;6.90;99.90
11772;DHT22;12556;55.748;13.194;2024-03-02T03:44:07;6.90;99.90
11772;DHT22;12556;55.748;13.194;2024-03-02T03:46:33;6.90;99.90
11772;DHT22;12556;55.748;13.194;2024-03-02T03:49:02;7.00;99.90
11772;DHT22;12556;55.748;13.194;2024-03-02T03:51:29;6.90;99.90
11772;DHT22;12556;55.748;13.194;2024-03-02T03:53:56;7.00;99.90
11772;DHT22;12556;55.748;13.194;2024-03-02T03:56:23;7.00;99.90
11772;DHT22;12556;55.748;13.194;2024-03-02T03:58:50;7.00;99.90
11772;DHT22;12556;55.748;13.194;2024-03-02T04:01:17;7.00;99.90
11772;DHT22;12556;55.748;13.194;2024-03-02T04:03:45;7.00;99.90
11772;DHT22;12556;55.748;13.194;2024-03-02T04:06:13;7.00;99.90
11772;DHT22;12556;55.748;13.194;2024-03-02T04:08:42;7.00;99.90
11772;DHT22;12556;55.748;13.194;2024-03-02T04:11:09;7.00;99.90
11772;DHT22;12556;55.748;13.194;2024-03-02T04:13:36;7.00;99.90
11772;DHT22;12556;55.748;13.194;2024-03-02T04:16:03;7.10;99.90
11772;DHT22;12556;55.748;13.194;2024-03-02T04:18:30;7.10;99.90
11772;DHT22;12556;55.748;13.194;2024-03-02T04:20:57;7.10;99.90
11772;DHT22;12556;55.748;13.194;2024-03-02T04:23:26;7.10;99.90
11772;DHT22;12556;55.748;13.194;2024-03-02T04:25:53;7.10;99.90
11772;DHT22;12556;55.748;13.194;2024-03-02T04:28:20;7.10;99.90
11772;DHT22;12556;55.748;13.194;2024-03-02T04:30:46;7.10;99.90
11772;DHT22;12556;55.748;13.194;2024-03-02T04:33:13;7.10;99.90
11772;DHT22;12556;55.748;13.194;2024-03-02T04:35:40;7.20;99.90
11772;DHT22;12556;55.748;13.194;2024-03-02T04:38:07;7.20;99.90
11772;DHT22;12556;55.748;13.194;2024-03-02T04:40:35;7.20;99.90
11772;DHT22;12556;55.748;13.194;2024-03-02T04:43:02;7.20;99.90
11772;DHT22;12556;55.748;13.194;2024-03-02T04:45:29;7.20;99.90
11772;DHT22;12556;55.748;13.194;2024-03-02T04:47:56;7.20;99.90
11772;DHT22;12556;55.748;13.194;2024-03-02T04:50:23;7.20;99.90
11772;DHT22;12556;55.748;13.194;2024-03-02T04:52:50;7.20;99.90
11772;DHT22;12556;55.748;13.194;2024-03-02T04:55:17;7.20;99.90
11772;DHT22;12556;55.748;13.194;2024-03-02T04:57:56;7.30;99.90
11772;DHT22;12556;55.748;13.194;2024-03-02T05:00:23;7.30;99.90
11772;DHT22;12556;55.748;13.194;2024-03-02T05:02:50;7.30;99.90
11772;DHT22;12556;55.748;13.194;2024-03-02T05:05:17;7.20;99.90
11772;DHT22;12556;55.748;13.194;2024-03-02T05:07:44;7.30;99.90
11772;DHT22;12556;55.748;13.194;2024-03-02T05:10:11;7.30;99.90
11772;DHT22;12556;55.748;13.194;2024-03-02T05:12:38;7.30;99.90
11772;DHT22;12556;55.748;13.194;2024-03-02T05:15:24;7.30;99.90
11772;DHT22;12556;55.748;13.194;2024-03-02T05:17:51;7.30;99.90
11772;DHT22;12556;55.748;13.194;2024-03-02T05:20:18;7.30;99.90
11772;DHT22;12556;55.748;13.194;2024-03-02T05:22:45;7.20;99.90
11772;DHT22;12556;55.748;13.194;2024-03-02T05:25:13;7.30;99.90
11772;DHT22;12556;55.748;13.194;2024-03-02T05:27:40;7.30;99.90
11772;DHT22;12556;55.748;13.194;2024-03-02T05:30:08;7.20;99.90
11772;DHT22;12556;55.748;13.194;2024-03-02T05:32:36;7.20;99.90
11772;DHT22;12556;55.748;13.194;2024-03-02T05:35:04;7.30;99.90
11772;DHT22;12556;55.748;13.194;2024-03-02T05:37:31;7.20;99.90
11772;DHT22;12556;55.748;13.194;2024-03-02T05:39:59;7.30;99.90
11772;DHT22;12556;55.748;13.194;2024-03-02T05:42:25;7.30;99.90
11772;DHT22;12556;55.748;13.194;2024-03-02T05:44:53;7.30;99.90
11772;DHT22;12556;55.748;13.194;2024-03-02T05:47:20;7.30;99.90
11772;DHT22;12556;55.748;13.194;2024-03-02T05:49:48;7.30;99.90
11772;DHT22;12556;55.748;13.194;2024-03-02T05:52:15;7.30;99.90
11772;DHT22;12556;55.748;13.194;2024-03-02T05:54:42;7.30;99.90
11772;DHT22;12556;55.748;13.194;2024-03-02T05:57:09;7.20;99.90
11772;DHT22;12556;55.748;13.194;2024-03-02T05:59:59;7.20;99.90
11772;DHT22;12556;55.748;13.194;2024-03-02T06:02:26;7.20;99.90
11772;DHT22;12556;55.748;13.194;2024-03-02T06:04:56;7.20;99.90
11772;DHT22;12556;55.748;13.194;2024-03-02T06:07:22;7.20;99.90
11772;DHT22;12556;55.748;13.194;2024-03-02T06:09:49;7.20;99.90
11772;DHT22;12556;55.748;13.194;2024-03-02T06:12:17;7.20;99.90
11772;DHT22;12556;55.748;13.194;2024-03-02T06:14:45;7.30;99.90
11772;DHT22;12556;55.748;13.194;2024-03-02T06:17:12;7.20;99.90
11772;DHT22;12556;55.748;13.194;2024-03-02T06:19:39;7.20;99.90
11772;DHT22;12556;55.748;13.194;2024-03-02T06:22:08;7.30;99.90
11772;DHT22;12556;55.748;13.194;2024-03-02T06:24:36;7.30;99.90
11772;DHT22;12556;55.748;13.194;2024-03-02T06:27:03;7.30;99.90
11772;DHT22;12556;55.748;13.194;2024-03-02T06:29:32;7.30;99.90
11772;DHT22;12556;55.748;13.194;2024-03-02T06:31:59;7.30;99.90
11772;DHT22;12556;55.748;13.194;2024-03-02T06:34:26;7.30;99.90
11772;DHT22;12556;55.748;13.194;2024-03-02T06:36:53;7.30;99.90
11772;DHT22;12556;55.748;13.194;2024-03-02T06:39:21;7.30;99.90
11772;DHT22;12556;55.748;13.194;2024-03-02T06:41:48;7.30;99.90
11772;DHT22;12556;55.748;13.194;2024-03-02T06:44:15;7.30;99.90
11772;DHT22;12556;55.748;13.194;2024-03-02T06:46:42;7.30;99.90
11772;DHT22;12556;55.748;13.194;2024-03-02T06:49:09;7.30;99.90
11772;DHT22;12556;55.748;13.194;2024-03-02T06:51:36;7.50;99.90
11772;DHT22;12556;55.748;13.194;2024-03-02T06:54:03;7.30;99.90
11772;DHT22;12556;55.748;13.194;2024-03-02T06:56:32;7.30;99.90
11772;DHT22;12556;55.748;13.194;2024-03-02T06:58:59;7.30;99.90
11772;DHT22;12556;55.748;13.194;2024-03-02T07:01:26;7.30;99.90
11772;DHT22;12556;55.748;13.194;2024-03-02T07:03:53;7.30;99.90
11772;DHT22;12556;55.748;13.194;2024-03-02T07:06:20;7.30;99.90
11772;DHT22;12556;55.748;13.194;2024-03-02T07:08:47;7.30;99.90
11772;DHT22;12556;55.748;13.194;2024-03-02T07:11:14;7.30;99.90
11772;DHT22;12556;55.748;13.194;2024-03-02T07:13:42;7.30;99.90
11772;DHT22;12556;55.748;13.194;2024-03-02T07:16:10;7.30;99.90
11772;DHT22;12556;55.748;13.194;2024-03-02T07:18:54;7.30;99.90
11772;DHT22;12556;55.748;13.194;2024-03-02T07:21:22;7.30;99.90
11772;DHT22;12556;55.748;13.194;2024-03-02T07:23:49;7.40;99.90
11772;DHT22;12556;55.748;13.194;2024-03-02T07:26:16;7.40;99.90
11772;DHT22;12556;55.748;13.194;2024-03-02T07:28:46;7.40;99.90
11772;DHT22;12556;55.748;13.194;2024-03-02T07:31:14;7.40;99.90
11772;DHT22;12556;55.748;13.194;2024-03-02T07:33:41;7.40;99.90
11772;DHT22;12556;55.748;13.194;2024-03-02T07:36:08;7.50;99.90
11772;DHT22;12556;55.748;13.194;2024-03-02T07:38:35;7.50;99.90
11772;DHT22;12556;55.748;13.194;2024-03-02T07:41:02;7.50;99.90
11772;DHT22;12556;55.748;13.194;2024-03-02T07:43:30;7.50;99.90
11772;DHT22;12556;55.748;13.194;2024-03-02T07:46:00;7.50;99.90
11772;DHT22;12556;55.748;13.194;2024-03-02T07:48:26;7.50;99.90
11772;DHT22;12556;55.748;13.194;2024-03-02T07:50:53;7.50;99.90
11772;DHT22;12556;55.748;13.194;2024-03-02T07:53:20;7.60;99.90
11772;DHT22;12556;55.748;13.194;2024-03-02T07:55:47;7.60;99.90
11772;DHT22;12556;55.748;13.194;2024-03-02T07:58:14;7.60;99.90
11772;DHT22;12556;55.748;13.194;2024-03-02T08:00:41;7.70;99.90
11772;DHT22;12556;55.748;13.194;2024-03-02T08:03:09;7.70;99.90
11772;DHT22;12556;55.748;13.194;2024-03-02T08:05:37;7.70;99.90
11772;DHT22;12556;55.748;13.194;2024-03-02T08:08:04;7.80;99.90
11772;DHT22;12556;55.748;13.194;2024-03-02T08:10:31;7.80;99.90
11772;DHT22;12556;55.748;13.194;2024-03-02T08:12:59;7.80;99.90
11772;DHT22;12556;55.748;13.194;2024-03-02T08:15:26;7.80;99.90
11772;DHT22;12556;55.748;13.194;2024-03-02T08:17:53;7.80;99.90
11772;DHT22;12556;55.748;13.194;2024-03-02T08:20:21;7.90;99.90
11772;DHT22;12556;55.748;13.194;2024-03-02T08:22:48;7.90;99.90
11772;DHT22;12556;55.748;13.194;2024-03-02T08:25:15;7.90;99.90
11772;DHT22;12556;55.748;13.194;2024-03-02T08:27:42;7.90;99.90
11772;DHT22;12556;55.748;13.194;2024-03-02T08:30:11;7.90;99.90
11772;DHT22;12556;55.748;13.194;2024-03-02T08:32:38;7.90;99.90
11772;DHT22;12556;55.748;13.194;2024-03-02T08:35:06;7.90;99.90
11772;DHT22;12556;55.748;13.194;2024-03-02T08:37:35;7.90;99.90
11772;DHT22;12556;55.748;13.194;2024-03-02T08:40:04;7.90;99.90
11772;DHT22;12556;55.748;13.194;2024-03-02T08:42:32;7.90;99.90
11772;DHT22;12556;55.748;13.194;2024-03-02T08:45:00;8.00;99.90
11772;DHT22;12556;55.748;13.194;2024-03-02T08:47:27;8.00;99.90
11772;DHT22;12556;55.748;13.194;2024-03-02T08:49:54;8.00;99.90
11772;DHT22;12556;55.748;13.194;2024-03-02T08:52:21;8.00;99.90
11772;DHT22;12556;55.748;13.194;2024-03-02T08:54:49;8.10;99.90
11772;DHT22;12556;55.748;13.194;2024-03-02T08:57:16;8.10;99.90
11772;DHT22;12556;55.748;13.194;2024-03-02T08:59:43;8.10;99.90
11772;DHT22;12556;55.748;13.194;2024-03-02T09:02:10;8.20;99.90
11772;DHT22;12556;55.748;13.194;2024-03-02T09:04:37;8.20;99.90
11772;DHT22;12556;55.748;13.194;2024-03-02T09:07:04;8.20;99.90
11772;DHT22;12556;55.748;13.194;2024-03-02T09:09:31;8.20;99.90
11772;DHT22;12556;55.748;13.194;2024-03-02T09:11:59;8.20;99.90
11772;DHT22;12556;55.748;13.194;2024-03-02T09:14:26;8.30;99.90
11772;DHT22;12556;55.748;13.194;2024-03-02T09:16:53;8.30;99.90
11772;DHT22;12556;55.748;13.194;2024-03-02T09:19:20;8.30;99.90
11772;DHT22;12556;55.748;13.194;2024-03-02T09:21:47;8.40;99.90
11772;DHT22;12556;55.748;13.194;2024-03-02T09:24:15;8.30;99.90
11772;DHT22;12556;55.748;13.194;2024-03-02T09:26:42;8.30;99.90
11772;DHT22;12556;55.748;13.194;2024-03-02T09:29:10;8.30;99.90
11772;DHT22;12556;55.748;13.194;2024-03-02T09:31:39;8.40;99.90
11772;DHT22;12556;55.748;13.194;2024-03-02T09:34:06;7.90;99.90
11772;DHT22;12556;55.748;13.194;2024-03-02T09:36:33;8.40;99.90
11772;DHT22;12556;55.748;13.194;2024-03-02T09:39:00;8.40;99.90
11772;DHT22;12556;55.748;13.194;2024-03-02T09:41:29;8.50;99.90
11772;DHT22;12556;55.748;13.194;2024-03-02T09:43:56;8.50;99.90
11772;DHT22;12556;55.748;13.194;2024-03-02T09:46:25;8.50;99.90
11772;DHT22;12556;55.748;13.194;2024-03-02T09:48:52;8.50;99.90
11772;DHT22;12556;55.748;13.194;2024-03-02T09:51:19;8.60;99.90
11772;DHT22;12556;55.748;13.194;2024-03-02T09:53:47;8.60;99.90
11772;DHT22;12556;55.748;13.194;2024-03-02T09:56:14;8.70;99.90
11772;DHT22;12556;55.748;13.194;2024-03-02T09:58:42;8.60;99.90
11772;DHT22;12556;55.748;13.194;2024-03-02T10:01:10;8.60;99.90
11772;DHT22;12556;55.748;13.194;2024-03-02T10:03:38;8.70;99.90
11772;DHT22;12556;55.748;13.194;2024-03-02T10:06:22;8.80;99.90
11772;DHT22;12556;55.748;13.194;2024-03-02T10:08:49;8.70;99.90
11772;DHT22;12556;55.748;13.194;2024-03-02T10:11:26;8.70;99.90
11772;DHT22;12556;55.748;13.194;2024-03-02T10:14:05;8.80;99.90
11772;DHT22;12556;55.748;13.194;2024-03-02T10:16:34;8.80;99.90
11772;DHT22;12556;55.748;13.194;2024-03-02T10:19:15;8.80;99.90
11772;DHT22;12556;55.748;13.194;2024-03-02T10:21:43;8.90;99.90
11772;DHT22;12556;55.748;13.194;2024-03-02T10:24:10;8.90;99.90
11772;DHT22;12556;55.748;13.194;2024-03-02T10:26:38;8.90;99.90
11772;DHT22;12556;55.748;13.194;2024-03-02T10:29:05;9.00;99.90
11772;DHT22;12556;55.748;13.194;2024-03-02T10:31:32;8.90;99.90
11772;DHT22;12556;55.748;13.194;2024-03-02T10:33:59;8.90;99.90
11772;DHT22;12556;55.748;13.194;2024-03-02T10:36:29;8.90;99.90
11772;DHT22;12556;55.748;13.194;2024-03-02T10:38:56;8.90;99.90
11772;DHT22;12556;55.748;13.194;2024-03-02T10:41:26;8.90;99.90
11772;DHT22;12556;55.748;13.194;2024-03-02T10:43:53;8.90;99.90
11772;DHT22;12556;55.748;13.194;2024-03-02T10:46:27;8.90;99.90
11772;DHT22;12556;55.748;13.194;2024-03-02T10:48:55;9.00;99.90
11772;DHT22;12556;55.748;13.194;2024-03-02T10:51:24;9.00;99.90
11772;DHT22;12556;55.748;13.194;2024-03-02T10:53:52;9.00;99.90
11772;DHT22;12556;55.748;13.194;2024-03-02T10:56:24;9.00;99.90
11772;DHT22;12556;55.748;13.194;2024-03-02T10:59:01;9.00;99.90
11772;DHT22;12556;55.748;13.194;2024-03-02T11:01:29;9.10;99.90
11772;DHT22;12556;55.748;13.194;2024-03-02T11:03:58;9.10;99.90
11772;DHT22;12556;55.748;13.194;2024-03-02T11:06:28;9.10;99.90
11772;DHT22;12556;55.748;13.194;2024-03-02T11:09:00;9.10;99.90
11772;DHT22;12556;55.748;13.194;2024-03-02T11:11:34;9.10;99.90
11772;DHT22;12556;55.748;13.194;2024-03-02T11:14:04;9.20;99.90
11772;DHT22;12556;55.748;13.194;2024-03-02T11:16:35;9.20;99.90
11772;DHT22;12556;55.748;13.194;2024-03-02T11:19:05;9.20;99.90
11772;DHT22;12556;55.748;13.194;2024-03-02T11:21:33;9.20;99.90
11772;DHT22;12556;55.748;13.194;2024-03-02T11:24:28;9.20;99.90
11772;DHT22;12556;55.748;13.194;2024-03-02T11:26:58;9.20;99.90
11772;DHT22;12556;55.748;13.194;2024-03-02T11:29:43;9.20;99.90
11772;DHT22;12556;55.748;13.194;2024-03-02T11:32:14;9.20;99.90
11772;DHT22;12556;55.748;13.194;2024-03-02T11:34:43;9.20;99.90
11772;DHT22;12556;55.748;13.194;2024-03-02T11:37:12;9.20;99.90
11772;DHT22;12556;55.748;13.194;2024-03-02T11:39:43;9.20;99.90
11772;DHT22;12556;55.748;13.194;2024-03-02T11:42:11;9.30;99.90
11772;DHT22;12556;55.748;13.194;2024-03-02T11:44:42;9.30;99.90
11772;DHT22;12556;55.748;13.194;2024-03-02T11:47:12;9.30;99.90
11772;DHT22;12556;55.748;13.194;2024-03-02T11:49:41;9.30;99.90
11772;DHT22;12556;55.748;13.194;2024-03-02T11:52:10;9.30;99.90
11772;DHT22;12556;55.748;13.194;2024-03-02T11:54:38;9.30;99.90
11772;DHT22;12556;55.748;13.194;2024-03-02T11:57:08;9.50;99.90
11772;DHT22;12556;55.748;13.194;2024-03-02T11:59:35;9.40;99.90
11772;DHT22;12556;55.748;13.194;2024-03-02T12:02:02;9.50;99.90
11772;DHT22;12556;55.748;13.194;2024-03-02T12:04:29;9.40;99.90
11772;DHT22;12556;55.748;13.194;2024-03-02T12:06:59;9.50;99.90
11772;DHT22;12556;55.748;13.194;2024-03-02T12:09:26;9.40;99.90
11772;DHT22;12556;55.748;13.194;2024-03-02T12:12:04;9.40;99.90
11772;DHT22;12556;55.748;13.194;2024-03-02T12:14:34;9.50;99.90
11772;DHT22;12556;55.748;13.194;2024-03-02T12:17:02;9.50;99.90
11772;DHT22;12556;55.748;13.194;2024-03-02T12:19:29;9.50;99.90
11772;DHT22;12556;55.748;13.194;2024-03-02T12:21:57;9.50;99.90
11772;DHT22;12556;55.748;13.194;2024-03-02T12:24:25;9.40;99.90
11772;DHT22;12556;55.748;13.194;2024-03-02T12:26:53;9.40;99.90
11772;DHT22;12556;55.748;13.194;2024-03-02T12:29:21;9.50;99.90
11772;DHT22;12556;55.748;13.194;2024-03-02T12:31:49;9.50;99.90
11772;DHT22;12556;55.748;13.194;2024-03-02T12:34:18;9.40;99.90
11772;DHT22;12556;55.748;13.194;2024-03-02T12:36:46;9.50;99.90
11772;DHT22;12556;55.748;13.194;2024-03-02T12:39:15;9.50;99.90
11772;DHT22;12556;55.748;13.194;2024-03-02T12:41:42;9.50;99.90
11772;DHT22;12556;55.748;13.194;2024-03-02T12:44:09;9.50;99.90
11772;DHT22;12556;55.748;13.194;2024-03-02T12:46:37;9.50;99.90
11772;DHT22;12556;55.748;13.194;2024-03-02T12:49:10;9.40;99.90
11772;DHT22;12556;55.748;13.194;2024-03-02T12:51:38;9.50;99.90
11772;DHT22;12556;55.748;13.194;2024-03-02T12:54:06;9.50;99.90
11772;DHT22;12556;55.748;13.194;2024-03-02T12:56:33;9.50;99.90
11772;DHT22;12556;55.748;13.194;2024-03-02T12:59:00;9.60;99.90
11772;DHT22;12556;55.748;13.194;2024-03-02T13:01:27;9.50;99.90
11772;DHT22;12556;55.748;13.194;2024-03-02T13:03:54;9.40;99.90
11772;DHT22;12556;55.748;13.194;2024-03-02T13:06:24;9.40;99.90
11772;DHT22;12556;55.748;13.194;2024-03-02T13:08:53;9.40;99.90
11772;DHT22;12556;55.748;13.194;2024-03-02T13:11:21;9.40;99.90
11772;DHT22;12556;55.748;13.194;2024-03-02T13:13:48;9.40;99.90
11772;DHT22;12556;55.748;13.194;2024-03-02T13:16:16;9.30;99.90
11772;DHT22;12556;55.748;13.194;2024-03-02T13:18:44;9.30;99.90
11772;DHT22;12556;55.748;13.194;2024-03-02T13:21:11;9.30;99.90
11772;DHT22;12556;55.748;13.194;2024-03-02T13:23:40;9.30;99.90
11772;DHT22;12556;55.748;13.194;2024-03-02T13:26:07;9.20;99.90
11772;DHT22;12556;55.748;13.194;2024-03-02T13:28:36;9.20;99.90
11772;DHT22;12556;55.748;13.194;2024-03-02T13:31:04;9.10;99.90
11772;DHT22;12556;55.748;13.194;2024-03-02T13:33:31;9.10;99.90
11772;DHT22;12556;55.748;13.194;2024-03-02T13:35:58;9.10;99.90
11772;DHT22;12556;55.748;13.194;2024-03-02T13:38:25;9.10;99.90
11772;DHT22;12556;55.748;13.194;2024-03-02T13:40:53;9.10;99.90
11772;DHT22;12556;55.748;13.194;2024-03-02T13:43:20;9.00;99.90
11772;DHT22;12556;55.748;13.194;2024-03-02T13:45:49;9.00;99.90
11772;DHT22;12556;55.748;13.194;2024-03-02T13:48:17;9.10;99.90
11772;DHT22;12556;55.748;13.194;2024-03-02T13:50:44;9.00;99.90
11772;DHT22;12556;55.748;13.194;2024-03-02T13:53:12;8.90;99.90
11772;DHT22;12556;55.748;13.194;2024-03-02T13:55:39;8.90;99.90
11772;DHT22;12556;55.748;13.194;2024-03-02T13:58:09;8.90;99.90
11772;DHT22;12556;55.748;13.194;2024-03-02T14:00:37;9.00;99.90
11772;DHT22;12556;55.748;13.194;2024-03-02T14:03:06;8.90;99.90
11772;DHT22;12556;55.748;13.194;2024-03-02T14:05:33;9.00;99.90
11772;DHT22;12556;55.748;13.194;2024-03-02T14:08:00;8.90;99.90
11772;DHT22;12556;55.748;13.194;2024-03-02T14:10:27;8.90;99.90
11772;DHT22;12556;55.748;13.194;2024-03-02T14:12:54;8.80;99.90
11772;DHT22;12556;55.748;13.194;2024-03-02T14:15:23;8.80;99.90
11772;DHT22;12556;55.748;13.194;2024-03-02T14:17:50;8.80;99.90
11772;DHT22;12556;55.748;13.194;2024-03-02T14:20:17;8.80;99.90
11772;DHT22;12556;55.748;13.194;2024-03-02T14:22:47;8.70;99.90
11772;DHT22;12556;55.748;13.194;2024-03-02T14:25:14;8.70;99.90
11772;DHT22;12556;55.748;13.194;2024-03-02T14:27:42;8.70;99.90
11772;DHT22;12556;55.748;13.194;2024-03-02T14:30:10;8.70;99.90
11772;DHT22;12556;55.748;13.194;2024-03-02T14:32:38;8.70;99.90
11772;DHT22;12556;55.748;13.194;2024-03-02T14:35:06;8.70;99.90
11772;DHT22;12556;55.748;13.194;2024-03-02T14:37:35;8.70;99.90
11772;DHT22;12556;55.748;13.194;2024-03-02T14:40:03;8.80;99.90
11772;DHT22;12556;55.748;13.194;2024-03-02T14:42:32;8.70;99.90
11772;DHT22;12556;55.748;13.194;2024-03-02T14:44:59;8.70;99.90
11772;DHT22;12556;55.748;13.194;2024-03-02T14:47:26;8.70;99.90
11772;DHT22;12556;55.748;13.194;2024-03-02T14:49:54;8.70;99.90
11772;DHT22;12556;55.748;13.194;2024-03-02T14:52:21;8.70;99.90
11772;DHT22;12556;55.748;13.194;2024-03-02T14:54:48;8.70;99.90
11772;DHT22;12556;55.748;13.194;2024-03-02T14:57:14;8.70;99.90
11772;DHT22;12556;55.748;13.194;2024-03-02T14:59:41;8.70;99.90
11772;DHT22;12556;55.748;13.194;2024-03-02T15:02:09;8.70;99.90
11772;DHT22;12556;55.748;13.194;2024-03-02T15:04:35;8.70;99.90
11772;DHT22;12556;55.748;13.194;2024-03-02T15:07:04;8.70;99.90
11772;DHT22;12556;55.748;13.194;2024-03-02T15:09:31;8.70;99.90
11772;DHT22;12556;55.748;13.194;2024-03-02T15:12:00;8.70;99.90
11772;DHT22;12556;55.748;13.194;2024-03-02T15:14:27;8.70;99.90
11772;DHT22;12556;55.748;13.194;2024-03-02T15:16:54;8.70;99.90
11772;DHT22;12556;55.748;13.194;2024-03-02T15:19:21;8.70;99.90
11772;DHT22;12556;55.748;13.194;2024-03-02T15:21:48;8.70;99.90
11772;DHT22;12556;55.748;13.194;2024-03-02T15:24:16;8.70;99.90
11772;DHT22;12556;55.748;13.194;2024-03-02T15:26:43;8.70;99.90
11772;DHT22;12556;55.748;13.194;2024-03-02T15:29:10;8.70;99.90
11772;DHT22;12556;55.748;13.194;2024-03-02T15:31:37;8.70;99.90
11772;DHT22;12556;55.748;13.194;2024-03-02T15:34:04;8.70;99.90
11772;DHT22;12556;55.748;13.194;2024-03-02T15:36:33;8.70;99.90